createdAt,value
2023-11-16T00:01:04.095Z,2.70
2023-11-16T00:03:53.143Z,2.80
2023-11-16T00:06:40.543Z,2.57
2023-11-16T00:09:26.923Z,3.17
2023-11-16T00:12:15.637Z,3.17
2023-11-16T00:15:02.201Z,2.97
2023-11-16T00:17:49.324Z,3.27
2023-11-16T00:20:37.256Z,3.57
2023-11-16T00:23:23.746Z,5.30
2023-11-16T00:26:12.250Z,4.03
2023-11-16T00:29:04.743Z,4.30
2023-11-16T00:31:51.366Z,3.83
2023-11-16T00:34:37.676Z,4.10
2023-11-16T00:37:24.030Z,4.00
2023-11-16T00:40:14.356Z,3.40
2023-11-16T00:43:00.971Z,3.40
2023-11-16T00:45:49.543Z,3.80
2023-11-16T00:48:37.174Z,2.97
2023-11-16T00:51:23.956Z,3.60
2023-11-16T00:54:12.668Z,3.30
2023-11-16T00:56:59.263Z,3.47
2023-11-16T00:59:47.663Z,3.40
2023-11-16T01:02:35.735Z,3.53
2023-11-16T01:05:23.843Z,3.27
2023-11-16T01:08:10.799Z,3.00
2023-11-16T01:10:58.786Z,3.23
2023-11-16T01:13:45.891Z,3.20
2023-11-16T01:16:41.485Z,3.53
2023-11-16T01:19:29.361Z,3.30
2023-11-16T01:22:18.092Z,2.87
2023-11-16T01:25:06.044Z,3.10
2023-11-16T01:27:58.459Z,3.40
2023-11-16T01:30:45.176Z,4.60
2023-11-16T01:33:31.920Z,4.70
2023-11-16T01:36:20.698Z,4.20
2023-11-16T01:39:09.144Z,4.77
2023-11-16T01:41:56.121Z,4.73
2023-11-16T01:44:42.324Z,4.50
2023-11-16T01:47:28.727Z,4.20
2023-11-16T01:50:16.321Z,4.10
2023-11-16T01:53:10.977Z,4.57
2023-11-16T01:55:58.426Z,4.23
2023-11-16T01:58:46.144Z,3.83
2023-11-16T02:01:34.205Z,4.50
2023-11-16T02:04:21.365Z,3.43
2023-11-16T02:07:07.935Z,3.70
2023-11-16T02:09:55.599Z,3.40
2023-11-16T02:12:42.452Z,3.40
2023-11-16T02:15:33.192Z,2.80
2023-11-16T02:18:20.346Z,2.87
2023-11-16T02:21:08.376Z,3.40
2023-11-16T02:23:56.690Z,2.97
2023-11-16T02:26:43.486Z,2.57
2023-11-16T02:29:30.277Z,3.57
2023-11-16T02:32:18.576Z,2.50
2023-11-16T02:35:05.852Z,3.23
2023-11-16T02:37:52.253Z,2.70
2023-11-16T02:40:41.138Z,2.40
2023-11-16T02:43:29.928Z,3.67
2023-11-16T02:46:18.639Z,2.80
2023-11-16T02:49:05.178Z,3.00
2023-11-16T02:51:51.624Z,2.50
2023-11-16T02:54:39.212Z,2.17
2023-11-16T02:57:26.942Z,2.40
2023-11-16T03:00:15.158Z,2.23
2023-11-16T03:03:03.747Z,2.33
2023-11-16T03:05:51.790Z,2.60
2023-11-16T03:08:38.164Z,2.33
2023-11-16T03:11:24.621Z,2.67
2023-11-16T03:14:14.433Z,2.13
2023-11-16T03:17:01.643Z,2.27
2023-11-16T03:19:47.929Z,2.50
2023-11-16T03:22:35.428Z,2.73
2023-11-16T03:25:21.696Z,2.57
2023-11-16T03:28:08.903Z,2.43
2023-11-16T03:30:56.495Z,2.67
2023-11-16T03:33:43.557Z,2.80
2023-11-16T03:36:30.231Z,2.60
2023-11-16T03:39:18.484Z,2.40
2023-11-16T03:42:05.680Z,2.60
2023-11-16T03:44:52.253Z,3.10
2023-11-16T03:47:39.887Z,2.47
2023-11-16T03:50:27.530Z,3.03
2023-11-16T03:53:14.646Z,2.23
2023-11-16T03:56:01.871Z,2.80
2023-11-16T03:58:48.360Z,2.60
2023-11-16T04:01:36.571Z,3.20
2023-11-16T04:04:24.741Z,2.90
2023-11-16T04:07:11.186Z,2.70
2023-11-16T04:09:57.621Z,2.83
2023-11-16T04:12:44.488Z,2.93
2023-11-16T04:15:32.529Z,2.53
2023-11-16T04:18:19.069Z,3.07
2023-11-16T04:21:13.227Z,2.27
2023-11-16T04:24:00.853Z,2.87
2023-11-16T04:26:49.843Z,3.40
2023-11-16T04:29:36.444Z,2.80
2023-11-16T04:32:24.963Z,2.10
2023-11-16T04:35:11.982Z,2.27
2023-11-16T04:38:00.533Z,2.30
2023-11-16T04:40:46.740Z,2.00
2023-11-16T04:43:34.259Z,2.13
2023-11-16T04:46:20.990Z,2.23
2023-11-16T04:49:07.789Z,2.03
2023-11-16T04:51:54.790Z,2.20
2023-11-16T04:54:42.843Z,2.37
2023-11-16T04:57:29.796Z,2.33
2023-11-16T05:00:20.103Z,2.27
2023-11-16T05:03:08.488Z,1.93
2023-11-16T05:05:57.599Z,2.53
2023-11-16T05:08:44.640Z,2.37
2023-11-16T05:11:32.165Z,2.10
2023-11-16T05:14:19.553Z,2.00
2023-11-16T05:17:06.368Z,2.93
2023-11-16T05:19:53.039Z,3.20
2023-11-16T05:22:39.813Z,3.17
2023-11-16T05:25:26.256Z,3.20
2023-11-16T05:28:14.121Z,2.70
2023-11-16T05:31:00.497Z,3.37
2023-11-16T05:33:47.149Z,3.23
2023-11-16T05:36:33.942Z,3.70
2023-11-16T05:39:20.998Z,3.33
2023-11-16T05:42:07.955Z,3.23
2023-11-16T05:44:56.114Z,3.07
2023-11-16T05:47:42.510Z,3.50
2023-11-16T05:50:29.512Z,3.40
2023-11-16T05:53:16.637Z,3.20
2023-11-16T05:56:03.387Z,3.63
2023-11-16T05:58:50.345Z,3.50
2023-11-16T06:01:39.033Z,3.60
2023-11-16T06:04:26.099Z,3.77
2023-11-16T06:07:13.060Z,4.00
2023-11-16T06:10:00.245Z,3.33
2023-11-16T06:12:48.062Z,3.40
2023-11-16T06:15:35.668Z,3.47
2023-11-16T06:18:25.601Z,3.80
2023-11-16T06:21:13.570Z,3.00
2023-11-16T06:23:59.921Z,3.83
2023-11-16T06:26:46.610Z,4.30
2023-11-16T06:29:32.942Z,4.60
2023-11-16T06:32:19.471Z,4.33
2023-11-16T06:35:07.742Z,5.10
2023-11-16T06:37:54.704Z,4.23
2023-11-16T06:40:41.295Z,4.63
2023-11-16T06:43:27.725Z,4.70
2023-11-16T06:46:14.467Z,5.20
2023-11-16T06:49:01.110Z,4.80
2023-11-16T06:51:49.704Z,4.83
2023-11-16T06:54:38.253Z,6.60
2023-11-16T06:57:27.771Z,4.60
2023-11-16T07:00:18.231Z,4.57
2023-11-16T07:03:05.856Z,4.50
2023-11-16T07:05:53.054Z,4.67
2023-11-16T07:08:42.558Z,4.33
2023-11-16T07:11:29.183Z,5.33
2023-11-16T07:14:15.583Z,3.90
2023-11-16T07:17:02.117Z,4.70
2023-11-16T07:19:49.154Z,4.73
2023-11-16T07:22:36.740Z,4.93
2023-11-16T07:25:26.594Z,4.33
2023-11-16T07:28:13.364Z,4.57
2023-11-16T07:30:59.948Z,4.17
2023-11-16T07:33:49.233Z,4.13
2023-11-16T07:36:35.642Z,3.73
2023-11-16T07:39:22.528Z,6.17
2023-11-16T07:42:11.263Z,4.80
2023-11-16T07:44:57.911Z,4.33
2023-11-16T07:47:48.473Z,4.20
2023-11-16T07:50:36.907Z,3.70
2023-11-16T07:53:25.655Z,3.80
2023-11-16T07:56:12.141Z,3.40
2023-11-16T07:59:01.450Z,3.57
2023-11-16T08:01:56.217Z,3.60
2023-11-16T08:04:41.802Z,4.57
2023-11-16T08:07:28.739Z,2.90
2023-11-16T08:10:17.084Z,3.67
2023-11-16T08:13:03.478Z,3.23
2023-11-16T08:15:54.975Z,3.70
2023-11-16T08:18:42.777Z,3.67
2023-11-16T08:21:29.628Z,2.80
2023-11-16T08:24:17.260Z,3.53
2023-11-16T08:27:04.308Z,3.33
2023-11-16T08:29:51.309Z,3.80
2023-11-16T08:32:39.886Z,2.90
2023-11-16T08:35:26.616Z,3.30
2023-11-16T08:38:16.164Z,3.67
2023-11-16T08:41:03.097Z,3.30
2023-11-16T08:43:51.848Z,3.47
2023-11-16T08:46:42.921Z,2.80
2023-11-16T08:49:32.988Z,2.87
2023-11-16T08:52:21.269Z,3.97
2023-11-16T08:55:08.994Z,3.30
2023-11-16T08:57:57.613Z,3.30
2023-11-16T09:00:46.945Z,3.60
2023-11-16T09:03:35.179Z,3.47
2023-11-16T09:06:23.180Z,3.37
2023-11-16T09:09:31.163Z,3.60
2023-11-16T09:12:17.988Z,3.90
2023-11-16T09:15:05.425Z,3.73
2023-11-16T09:17:52.915Z,3.70
2023-11-16T09:20:41.260Z,5.13
2023-11-16T09:23:29.010Z,4.70
2023-11-16T09:26:15.630Z,4.50
2023-11-16T09:29:07.981Z,3.93
2023-11-16T09:31:55.449Z,3.43
2023-11-16T09:34:42.493Z,3.50
2023-11-16T09:37:30.765Z,3.40
2023-11-16T09:40:24.168Z,3.80
2023-11-16T09:43:18.620Z,3.93
2023-11-16T09:46:10.159Z,3.73
2023-11-16T09:48:58.560Z,3.90
2023-11-16T09:51:46.310Z,3.13
2023-11-16T09:54:32.849Z,3.80
2023-11-16T09:57:24.987Z,3.50
2023-11-16T10:00:19.596Z,3.47
2023-11-16T10:03:08.402Z,4.10
2023-11-16T10:05:56.607Z,3.97
2023-11-16T10:08:44.596Z,3.80
2023-11-16T10:11:32.441Z,3.40
2023-11-16T10:14:20.384Z,3.20
2023-11-16T10:17:07.239Z,3.67
2023-11-16T10:19:53.858Z,3.30
2023-11-16T10:22:40.450Z,3.10
2023-11-16T10:25:27.028Z,3.60
2023-11-16T10:28:18.589Z,4.00
2023-11-16T10:31:07.422Z,3.10
2023-11-16T10:33:54.330Z,3.10
2023-11-16T10:36:41.581Z,3.20
2023-11-16T10:39:29.895Z,3.00
2023-11-16T10:42:19.739Z,3.33
2023-11-16T10:45:07.593Z,2.93
2023-11-16T10:47:55.850Z,2.87
2023-11-16T10:50:44.251Z,2.33
2023-11-16T10:53:35.005Z,3.57
2023-11-16T10:56:22.704Z,2.93
2023-11-16T10:59:09.984Z,3.20
2023-11-16T11:01:58.364Z,3.67
2023-11-16T11:04:52.085Z,3.20
2023-11-16T11:07:48.321Z,2.97
2023-11-16T11:10:34.752Z,3.00
2023-11-16T11:13:27.700Z,2.73
2023-11-16T11:16:14.772Z,2.93
2023-11-16T11:19:05.174Z,3.20
2023-11-16T11:21:53.119Z,3.60
2023-11-16T11:24:46.305Z,2.73
2023-11-16T11:27:32.759Z,3.20
2023-11-16T11:30:22.194Z,2.70
2023-11-16T11:33:15.429Z,2.90
2023-11-16T11:36:03.787Z,2.50
2023-11-16T11:38:55.234Z,2.60
2023-11-16T11:41:48.637Z,3.03
2023-11-16T11:44:34.952Z,2.90
2023-11-16T11:47:22.451Z,2.77
2023-11-16T11:50:09.816Z,2.73
2023-11-16T11:52:57.091Z,2.97
2023-11-16T11:55:45.843Z,2.93
2023-11-16T11:58:32.097Z,2.90
2023-11-16T12:01:18.491Z,2.80
2023-11-16T12:04:13.348Z,3.50
2023-11-16T12:07:08.750Z,2.93
2023-11-16T12:09:55.430Z,2.77
2023-11-16T12:12:43.353Z,2.77
2023-11-16T12:15:31.122Z,3.03
2023-11-16T12:18:19.119Z,2.90
2023-11-16T12:21:08.715Z,2.60
2023-11-16T12:23:58.310Z,2.50
2023-11-16T12:26:47.720Z,2.70
2023-11-16T12:29:36.690Z,2.93
2023-11-16T12:32:23.477Z,3.10
2023-11-16T12:35:11.303Z,3.40
2023-11-16T12:37:57.822Z,3.93
2023-11-16T12:40:46.084Z,3.90
2023-11-16T12:43:32.554Z,3.80
2023-11-16T12:46:21.133Z,3.73
2023-11-16T12:49:08.578Z,4.10
2023-11-16T12:51:55.684Z,3.90
2023-11-16T12:54:43.081Z,4.20
2023-11-16T12:57:29.799Z,4.10
2023-11-16T13:00:19.165Z,4.97
2023-11-16T13:03:07.232Z,4.63
2023-11-16T13:05:53.830Z,5.20
2023-11-16T13:08:40.299Z,5.10
2023-11-16T13:11:26.873Z,4.73
2023-11-16T13:14:13.895Z,5.10
2023-11-16T13:17:01.277Z,4.87
2023-11-16T13:19:49.485Z,4.80
2023-11-16T13:22:36.263Z,5.27
2023-11-16T13:25:23.646Z,5.13
2023-11-16T13:28:10.459Z,5.10
2023-11-16T13:30:57.190Z,5.40
2023-11-16T13:33:43.982Z,5.20
2023-11-16T13:36:32.808Z,6.40
2023-11-16T13:39:19.433Z,4.60
2023-11-16T13:42:06.543Z,4.47
2023-11-16T13:44:52.944Z,4.70
2023-11-16T13:47:39.081Z,4.07
2023-11-16T13:50:25.916Z,3.70
2023-11-16T13:53:13.482Z,2.70
2023-11-16T13:55:59.948Z,2.13
2023-11-16T13:58:47.062Z,3.20
2023-11-16T14:01:33.488Z,3.47
2023-11-16T14:04:20.348Z,4.23
2023-11-16T14:07:07.382Z,4.20
2023-11-16T14:10:06.330Z,4.50
2023-11-16T14:12:59.990Z,4.20
2023-11-16T14:15:56.833Z,4.37
2023-11-16T14:18:48.963Z,3.90
2023-11-16T14:21:36.450Z,4.30
2023-11-16T14:24:28.897Z,4.67
2023-11-16T14:27:19.939Z,4.33
2023-11-16T14:30:07.768Z,4.53
2023-11-16T14:32:55.012Z,4.00
2023-11-16T14:35:42.673Z,4.53
2023-11-16T14:38:29.767Z,4.30
2023-11-16T14:41:16.458Z,3.97
2023-11-16T14:44:04.424Z,4.90
2023-11-16T14:46:52.056Z,4.40
2023-11-16T14:49:38.635Z,4.70
2023-11-16T14:52:26.019Z,4.60
2023-11-16T14:55:12.586Z,4.57
2023-11-16T14:57:59.289Z,4.13
2023-11-16T15:00:47.428Z,4.60
2023-11-16T15:03:34.428Z,4.00
2023-11-16T15:06:21.410Z,4.37
2023-11-16T15:09:11.097Z,4.43
2023-11-16T15:11:59.812Z,4.50
2023-11-16T15:14:46.250Z,3.40
2023-11-16T15:17:34.104Z,3.33
2023-11-16T15:20:26.776Z,3.30
2023-11-16T15:23:14.450Z,3.50
2023-11-16T15:26:04.328Z,3.10
2023-11-16T15:28:53.218Z,3.20
2023-11-16T15:31:42.015Z,3.13
2023-11-16T15:34:30.045Z,3.40
2023-11-16T15:37:17.290Z,2.83
2023-11-16T15:40:05.873Z,3.27
2023-11-16T15:42:52.629Z,3.10
2023-11-16T15:45:39.536Z,3.13
2023-11-16T15:48:27.014Z,3.03
2023-11-16T15:51:17.525Z,2.90
2023-11-16T15:54:03.913Z,2.97
2023-11-16T15:56:52.729Z,2.87
2023-11-16T15:59:39.535Z,3.07
2023-11-16T16:02:29.914Z,3.70
2023-11-16T16:05:19.368Z,2.80
2023-11-16T16:08:07.431Z,3.33
2023-11-16T16:10:53.669Z,3.03
2023-11-16T16:13:40.440Z,2.83
2023-11-16T16:16:27.091Z,2.53
2023-11-16T16:19:15.162Z,2.70
2023-11-16T16:22:01.923Z,2.63
2023-11-16T16:24:50.138Z,3.30
2023-11-16T16:27:36.959Z,2.30
2023-11-16T16:30:23.723Z,2.53
2023-11-16T16:33:10.224Z,2.20
2023-11-16T16:35:56.819Z,2.30
2023-11-16T16:38:43.001Z,2.60
2023-11-16T16:41:30.742Z,2.70
2023-11-16T16:44:17.025Z,2.37
2023-11-16T16:47:04.484Z,2.67
2023-11-16T16:49:53.098Z,2.43
2023-11-16T16:52:39.598Z,3.10
2023-11-16T16:55:26.585Z,2.50
2023-11-16T16:58:14.199Z,2.40
2023-11-16T17:01:00.636Z,2.30
2023-11-16T17:03:47.368Z,3.60
2023-11-16T17:06:34.142Z,2.70
2023-11-16T17:09:20.651Z,2.90
2023-11-16T17:12:08.387Z,2.20
2023-11-16T17:14:58.354Z,2.53
2023-11-16T17:17:45.298Z,2.30
2023-11-16T17:20:33.390Z,2.87
2023-11-16T17:23:19.670Z,2.43
2023-11-16T17:26:06.804Z,1.70
2023-11-16T17:28:54.384Z,2.20
2023-11-16T17:31:42.603Z,1.97
2023-11-16T17:34:28.763Z,2.13
2023-11-16T17:37:15.420Z,2.10
2023-11-16T17:40:02.038Z,2.27
2023-11-16T17:42:49.073Z,2.17
2023-11-16T17:45:35.745Z,2.43
2023-11-16T17:48:25.748Z,2.20
2023-11-16T17:51:12.772Z,2.40
2023-11-16T17:53:59.127Z,2.87
2023-11-16T17:56:48.915Z,2.80
2023-11-16T17:59:37.051Z,2.27
2023-11-16T18:02:23.358Z,2.60
2023-11-16T18:05:15.207Z,2.20
2023-11-16T18:08:02.541Z,2.80
2023-11-16T18:10:55.051Z,2.97
2023-11-16T18:13:47.036Z,2.93
2023-11-16T18:16:34.059Z,2.80
2023-11-16T18:19:21.450Z,3.07
2023-11-16T18:22:09.284Z,3.50
2023-11-16T18:24:56.089Z,3.40
2023-11-16T18:27:43.809Z,3.73
2023-11-16T18:30:31.080Z,3.80
2023-11-16T18:33:20.381Z,3.83
2023-11-16T18:36:09.721Z,4.17
2023-11-16T18:38:57.997Z,4.17
2023-11-16T18:41:44.860Z,4.13
2023-11-16T18:44:31.788Z,4.37
2023-11-16T18:47:18.682Z,4.17
2023-11-16T18:50:06.441Z,5.00
2023-11-16T18:52:55.057Z,5.67
2023-11-16T18:55:43.030Z,5.00
2023-11-16T18:58:30.371Z,4.27
2023-11-16T19:01:16.818Z,4.73
2023-11-16T19:04:03.650Z,5.63
2023-11-16T19:06:51.834Z,5.57
2023-11-16T19:09:38.558Z,5.67
2023-11-16T19:12:26.305Z,4.53
2023-11-16T19:15:13.984Z,4.27
2023-11-16T19:18:02.364Z,4.47
2023-11-16T19:20:49.391Z,4.67
2023-11-16T19:23:35.883Z,4.50
2023-11-16T19:26:23.629Z,5.13
2023-11-16T19:29:11.990Z,4.80
2023-11-16T19:31:58.924Z,6.13
2023-11-16T19:34:45.593Z,5.10
2023-11-16T19:37:32.033Z,4.60
2023-11-16T19:40:26.788Z,4.97
2023-11-16T19:43:21.266Z,5.03
2023-11-16T19:46:10.560Z,4.83
2023-11-16T19:48:57.341Z,6.37
2023-11-16T19:51:44.099Z,4.90
2023-11-16T19:54:30.362Z,5.43
2023-11-16T19:57:16.917Z,5.40
2023-11-16T20:00:05.161Z,4.80
2023-11-16T20:02:53.979Z,5.60
2023-11-16T20:05:40.495Z,4.33
2023-11-16T20:08:27.044Z,4.60
2023-11-16T20:11:15.000Z,4.13
2023-11-16T20:14:01.713Z,4.40
2023-11-16T20:16:48.220Z,4.10
2023-11-16T20:19:38.000Z,4.30
2023-11-16T20:22:24.702Z,4.37
2023-11-16T20:25:15.199Z,4.40
2023-11-16T20:28:02.074Z,4.33
2023-11-16T20:30:49.034Z,4.80
2023-11-16T20:33:35.631Z,5.33
2023-11-16T20:36:24.884Z,6.33
2023-11-16T20:39:11.583Z,4.43
2023-11-16T20:41:58.002Z,4.60
2023-11-16T20:44:44.319Z,4.50
2023-11-16T20:47:33.787Z,5.20
2023-11-16T20:50:21.876Z,4.93
2023-11-16T20:53:12.981Z,5.57
2023-11-16T20:55:59.719Z,6.27
2023-11-16T20:58:46.096Z,6.30
2023-11-16T21:01:32.616Z,6.63
2023-11-16T21:04:19.020Z,6.60
2023-11-16T21:07:05.971Z,6.13
2023-11-16T21:09:54.154Z,6.63
2023-11-16T21:12:41.543Z,7.10
2023-11-16T21:15:28.436Z,6.73
2023-11-16T21:18:16.115Z,7.13
2023-11-16T21:21:04.303Z,6.70
2023-11-16T21:23:51.104Z,5.70
2023-11-16T21:26:38.977Z,6.97
2023-11-16T21:29:25.315Z,6.90
2023-11-16T21:32:11.936Z,6.50
2023-11-16T21:34:58.692Z,6.80
2023-11-16T21:37:46.113Z,6.10
2023-11-16T21:40:34.528Z,6.00
2023-11-16T21:43:22.323Z,6.17
2023-11-16T21:46:08.936Z,6.60
2023-11-16T21:48:55.703Z,6.83
2023-11-16T21:51:42.171Z,7.70
2023-11-16T21:54:29.034Z,8.30
2023-11-16T21:57:16.627Z,8.60
2023-11-16T22:00:05.967Z,8.23
2023-11-16T22:02:55.821Z,7.93
2023-11-16T22:05:43.075Z,8.90
2023-11-16T22:08:30.690Z,8.80
2023-11-16T22:11:17.550Z,8.63
2023-11-16T22:14:06.790Z,9.80
2023-11-16T22:16:55.013Z,8.53
2023-11-16T22:19:41.863Z,8.90
2023-11-16T22:22:28.386Z,8.43
2023-11-16T22:25:15.050Z,9.10
2023-11-16T22:28:02.045Z,9.20
2023-11-16T22:30:48.771Z,9.40
2023-11-16T22:33:36.458Z,8.77
2023-11-16T22:36:23.043Z,9.30
2023-11-16T22:39:10.530Z,9.10
2023-11-16T22:41:56.991Z,9.30
2023-11-16T22:44:43.241Z,8.83
2023-11-16T22:47:29.995Z,9.10
2023-11-16T22:50:18.463Z,8.70
2023-11-16T22:53:04.759Z,9.63
2023-11-16T22:55:51.160Z,9.50
2023-11-16T22:58:37.454Z,8.80
2023-11-16T23:01:23.649Z,8.47
2023-11-16T23:04:10.627Z,8.90
2023-11-16T23:06:59.224Z,8.57
2023-11-16T23:09:46.349Z,8.53
2023-11-16T23:12:33.295Z,9.20
2023-11-16T23:15:21.458Z,9.50
2023-11-16T23:18:09.699Z,9.50
2023-11-16T23:20:57.672Z,9.60
2023-11-16T23:23:45.892Z,9.00
2023-11-16T23:26:32.793Z,9.27
2023-11-16T23:29:19.299Z,8.43
2023-11-16T23:32:06.443Z,9.00
2023-11-16T23:34:52.795Z,9.00
2023-11-16T23:37:39.052Z,9.30
2023-11-16T23:40:26.826Z,9.87
2023-11-16T23:43:13.652Z,8.83
2023-11-16T23:46:00.464Z,9.60
2023-11-16T23:48:47.562Z,8.93
2023-11-16T23:51:34.148Z,8.47
2023-11-16T23:54:20.764Z,9.47
2023-11-16T23:57:08.684Z,8.03
2023-11-16T23:59:55.090Z,8.97
